sensor_id;sensor_type;location;lat;lon;timestamp;P1;durP1;ratioP1;P2;durP2;ratioP2
60502;SDS011;51448;51.660;5.824;2024-01-27T00:00:13;19.42;;;5.55;;
60502;SDS011;51448;51.660;5.824;2024-01-27T00:02:41;11.65;;;4.50;;
60502;SDS011;51448;51.660;5.824;2024-01-27T00:05:09;16.88;;;4.20;;
60502;SDS011;51448;51.660;5.824;2024-01-27T00:07:37;20.92;;;5.05;;
60502;SDS011;51448;51.660;5.824;2024-01-27T00:10:04;18.55;;;5.80;;
60502;SDS011;51448;51.660;5.824;2024-01-27T00:12:33;12.45;;;4.30;;
60502;SDS011;51448;51.660;5.824;2024-01-27T00:15:00;16.05;;;4.95;;
60502;SDS011;51448;51.660;5.824;2024-01-27T00:17:28;18.30;;;4.75;;
60502;SDS011;51448;51.660;5.824;2024-01-27T00:19:55;23.80;;;5.13;;
60502;SDS011;51448;51.660;5.824;2024-01-27T00:22:23;17.92;;;5.53;;
60502;SDS011;51448;51.660;5.824;2024-01-27T00:24:50;15.60;;;4.55;;
60502;SDS011;51448;51.660;5.824;2024-01-27T00:27:18;16.33;;;5.22;;
60502;SDS011;51448;51.660;5.824;2024-01-27T00:29:46;14.07;;;4.53;;
60502;SDS011;51448;51.660;5.824;2024-01-27T00:32:13;20.02;;;5.00;;
60502;SDS011;51448;51.660;5.824;2024-01-27T00:34:41;18.77;;;5.45;;
60502;SDS011;51448;51.660;5.824;2024-01-27T00:37:08;23.50;;;5.45;;
60502;SDS011;51448;51.660;5.824;2024-01-27T00:39:36;20.58;;;6.07;;
60502;SDS011;51448;51.660;5.824;2024-01-27T00:42:03;18.35;;;5.90;;
60502;SDS011;51448;51.660;5.824;2024-01-27T00:44:31;14.82;;;6.72;;
60502;SDS011;51448;51.660;5.824;2024-01-27T00:46:58;14.30;;;5.05;;
60502;SDS011;51448;51.660;5.824;2024-01-27T00:49:26;17.33;;;5.30;;
60502;SDS011;51448;51.660;5.824;2024-01-27T00:51:53;15.43;;;5.13;;
60502;SDS011;51448;51.660;5.824;2024-01-27T00:54:21;18.80;;;6.28;;
60502;SDS011;51448;51.660;5.824;2024-01-27T00:56:49;22.30;;;6.30;;
60502;SDS011;51448;51.660;5.824;2024-01-27T00:59:16;16.70;;;5.80;;
60502;SDS011;51448;51.660;5.824;2024-01-27T01:01:44;21.95;;;5.72;;
60502;SDS011;51448;51.660;5.824;2024-01-27T01:04:11;20.70;;;6.45;;
60502;SDS011;51448;51.660;5.824;2024-01-27T01:06:39;15.90;;;5.80;;
60502;SDS011;51448;51.660;5.824;2024-01-27T01:09:08;22.00;;;6.03;;
60502;SDS011;51448;51.660;5.824;2024-01-27T01:11:36;20.35;;;7.50;;
60502;SDS011;51448;51.660;5.824;2024-01-27T01:14:06;19.77;;;6.70;;
60502;SDS011;51448;51.660;5.824;2024-01-27T01:16:34;16.33;;;6.70;;
60502;SDS011;51448;51.660;5.824;2024-01-27T01:19:01;13.88;;;4.80;;
60502;SDS011;51448;51.660;5.824;2024-01-27T01:21:29;14.45;;;5.68;;
60502;SDS011;51448;51.660;5.824;2024-01-27T01:23:57;17.23;;;4.95;;
60502;SDS011;51448;51.660;5.824;2024-01-27T01:26:24;12.15;;;4.95;;
60502;SDS011;51448;51.660;5.824;2024-01-27T01:28:52;22.35;;;6.82;;
60502;SDS011;51448;51.660;5.824;2024-01-27T01:31:20;18.67;;;6.47;;
60502;SDS011;51448;51.660;5.824;2024-01-27T01:33:47;20.20;;;6.07;;
60502;SDS011;51448;51.660;5.824;2024-01-27T01:36:16;20.52;;;5.57;;
60502;SDS011;51448;51.660;5.824;2024-01-27T01:38:43;16.83;;;5.72;;
60502;SDS011;51448;51.660;5.824;2024-01-27T01:41:11;18.27;;;6.53;;
60502;SDS011;51448;51.660;5.824;2024-01-27T01:43:39;15.38;;;5.93;;
60502;SDS011;51448;51.660;5.824;2024-01-27T01:46:07;19.70;;;6.32;;
60502;SDS011;51448;51.660;5.824;2024-01-27T01:48:35;18.35;;;6.15;;
60502;SDS011;51448;51.660;5.824;2024-01-27T01:51:02;21.00;;;6.05;;
60502;SDS011;51448;51.660;5.824;2024-01-27T01:53:31;20.23;;;8.18;;
60502;SDS011;51448;51.660;5.824;2024-01-27T01:55:59;20.02;;;7.28;;
60502;SDS011;51448;51.660;5.824;2024-01-27T01:58:26;17.38;;;7.07;;
60502;SDS011;51448;51.660;5.824;2024-01-27T02:01:01;21.52;;;7.25;;
60502;SDS011;51448;51.660;5.824;2024-01-27T02:03:29;17.52;;;7.55;;
60502;SDS011;51448;51.660;5.824;2024-01-27T02:05:56;23.80;;;8.40;;
60502;SDS011;51448;51.660;5.824;2024-01-27T02:08:24;20.23;;;7.90;;
60502;SDS011;51448;51.660;5.824;2024-01-27T02:10:52;19.80;;;7.05;;
60502;SDS011;51448;51.660;5.824;2024-01-27T02:13:23;22.13;;;7.45;;
60502;SDS011;51448;51.660;5.824;2024-01-27T02:15:51;20.90;;;7.78;;
60502;SDS011;51448;51.660;5.824;2024-01-27T02:18:19;17.15;;;6.20;;
60502;SDS011;51448;51.660;5.824;2024-01-27T02:20:48;22.23;;;8.18;;
60502;SDS011;51448;51.660;5.824;2024-01-27T02:23:15;12.32;;;5.43;;
60502;SDS011;51448;51.660;5.824;2024-01-27T02:25:43;19.98;;;7.43;;
60502;SDS011;51448;51.660;5.824;2024-01-27T02:28:10;17.23;;;7.57;;
60502;SDS011;51448;51.660;5.824;2024-01-27T02:30:40;19.48;;;6.35;;
60502;SDS011;51448;51.660;5.824;2024-01-27T02:33:07;18.23;;;6.82;;
60502;SDS011;51448;51.660;5.824;2024-01-27T02:35:35;14.35;;;6.95;;
60502;SDS011;51448;51.660;5.824;2024-01-27T02:38:03;21.13;;;7.38;;
60502;SDS011;51448;51.660;5.824;2024-01-27T02:40:30;21.25;;;6.53;;
60502;SDS011;51448;51.660;5.824;2024-01-27T02:42:58;18.55;;;6.13;;
60502;SDS011;51448;51.660;5.824;2024-01-27T02:45:25;19.35;;;7.65;;
60502;SDS011;51448;51.660;5.824;2024-01-27T02:47:53;16.77;;;7.15;;
60502;SDS011;51448;51.660;5.824;2024-01-27T02:50:21;28.23;;;8.45;;
60502;SDS011;51448;51.660;5.824;2024-01-27T02:52:48;26.40;;;8.45;;
60502;SDS011;51448;51.660;5.824;2024-01-27T02:55:16;20.27;;;7.40;;
60502;SDS011;51448;51.660;5.824;2024-01-27T02:57:43;18.80;;;7.50;;
60502;SDS011;51448;51.660;5.824;2024-01-27T03:00:11;18.10;;;7.35;;
60502;SDS011;51448;51.660;5.824;2024-01-27T03:02:39;18.00;;;6.97;;
60502;SDS011;51448;51.660;5.824;2024-01-27T03:05:06;17.35;;;7.13;;
60502;SDS011;51448;51.660;5.824;2024-01-27T03:07:34;13.50;;;6.68;;
60502;SDS011;51448;51.660;5.824;2024-01-27T03:10:02;26.02;;;8.13;;
60502;SDS011;51448;51.660;5.824;2024-01-27T03:12:30;18.02;;;8.20;;
60502;SDS011;51448;51.660;5.824;2024-01-27T03:14:58;32.33;;;7.97;;
60502;SDS011;51448;51.660;5.824;2024-01-27T03:17:25;22.23;;;8.30;;
60502;SDS011;51448;51.660;5.824;2024-01-27T03:19:53;18.15;;;8.05;;
60502;SDS011;51448;51.660;5.824;2024-01-27T03:22:20;17.65;;;7.15;;
60502;SDS011;51448;51.660;5.824;2024-01-27T03:24:48;25.08;;;8.52;;
60502;SDS011;51448;51.660;5.824;2024-01-27T03:27:15;21.88;;;8.80;;
60502;SDS011;51448;51.660;5.824;2024-01-27T03:29:43;23.20;;;8.88;;
60502;SDS011;51448;51.660;5.824;2024-01-27T03:32:10;21.70;;;8.35;;
60502;SDS011;51448;51.660;5.824;2024-01-27T03:34:43;27.60;;;8.52;;
60502;SDS011;51448;51.660;5.824;2024-01-27T03:37:14;18.45;;;7.47;;
60502;SDS011;51448;51.660;5.824;2024-01-27T03:39:42;20.90;;;7.88;;
60502;SDS011;51448;51.660;5.824;2024-01-27T03:42:10;19.77;;;7.88;;
60502;SDS011;51448;51.660;5.824;2024-01-27T03:44:37;24.40;;;8.10;;
60502;SDS011;51448;51.660;5.824;2024-01-27T03:47:05;20.35;;;8.75;;
60502;SDS011;51448;51.660;5.824;2024-01-27T03:49:32;17.27;;;8.07;;
60502;SDS011;51448;51.660;5.824;2024-01-27T03:52:00;18.38;;;7.72;;
60502;SDS011;51448;51.660;5.824;2024-01-27T03:54:27;21.05;;;8.43;;
60502;SDS011;51448;51.660;5.824;2024-01-27T03:56:55;17.20;;;7.88;;
60502;SDS011;51448;51.660;5.824;2024-01-27T03:59:23;20.55;;;7.45;;
60502;SDS011;51448;51.660;5.824;2024-01-27T04:01:50;18.50;;;8.98;;
60502;SDS011;51448;51.660;5.824;2024-01-27T04:04:18;19.30;;;8.07;;
60502;SDS011;51448;51.660;5.824;2024-01-27T04:06:45;23.83;;;9.63;;
60502;SDS011;51448;51.660;5.824;2024-01-27T04:09:13;28.15;;;9.77;;
60502;SDS011;51448;51.660;5.824;2024-01-27T04:11:40;19.77;;;8.15;;
60502;SDS011;51448;51.660;5.824;2024-01-27T04:14:08;21.17;;;9.02;;
60502;SDS011;51448;51.660;5.824;2024-01-27T04:16:36;20.92;;;8.25;;
60502;SDS011;51448;51.660;5.824;2024-01-27T04:19:03;15.68;;;8.43;;
60502;SDS011;51448;51.660;5.824;2024-01-27T04:21:31;17.23;;;8.25;;
60502;SDS011;51448;51.660;5.824;2024-01-27T04:23:59;19.60;;;8.93;;
60502;SDS011;51448;51.660;5.824;2024-01-27T04:26:27;22.20;;;8.88;;
60502;SDS011;51448;51.660;5.824;2024-01-27T04:28:54;27.30;;;9.45;;
60502;SDS011;51448;51.660;5.824;2024-01-27T04:31:22;17.70;;;7.63;;
60502;SDS011;51448;51.660;5.824;2024-01-27T04:33:49;28.05;;;10.80;;
60502;SDS011;51448;51.660;5.824;2024-01-27T04:36:29;32.13;;;8.98;;
60502;SDS011;51448;51.660;5.824;2024-01-27T04:38:57;25.35;;;10.45;;
60502;SDS011;51448;51.660;5.824;2024-01-27T04:41:25;24.48;;;9.48;;
60502;SDS011;51448;51.660;5.824;2024-01-27T04:43:52;25.65;;;9.82;;
60502;SDS011;51448;51.660;5.824;2024-01-27T04:46:20;25.48;;;9.25;;
60502;SDS011;51448;51.660;5.824;2024-01-27T04:48:48;18.35;;;9.07;;
60502;SDS011;51448;51.660;5.824;2024-01-27T04:51:18;24.50;;;9.65;;
60502;SDS011;51448;51.660;5.824;2024-01-27T04:53:45;22.00;;;8.60;;
60502;SDS011;51448;51.660;5.824;2024-01-27T04:56:13;21.10;;;9.15;;
60502;SDS011;51448;51.660;5.824;2024-01-27T04:58:41;22.17;;;9.90;;
60502;SDS011;51448;51.660;5.824;2024-01-27T05:01:08;25.75;;;10.27;;
60502;SDS011;51448;51.660;5.824;2024-01-27T05:03:36;28.13;;;9.13;;
60502;SDS011;51448;51.660;5.824;2024-01-27T05:06:07;20.55;;;9.30;;
60502;SDS011;51448;51.660;5.824;2024-01-27T05:08:36;19.55;;;8.35;;
60502;SDS011;51448;51.660;5.824;2024-01-27T05:11:04;21.77;;;9.45;;
60502;SDS011;51448;51.660;5.824;2024-01-27T05:13:31;19.80;;;7.65;;
60502;SDS011;51448;51.660;5.824;2024-01-27T05:15:59;23.52;;;9.23;;
60502;SDS011;51448;51.660;5.824;2024-01-27T05:18:26;22.17;;;8.50;;
60502;SDS011;51448;51.660;5.824;2024-01-27T05:20:54;24.05;;;9.50;;
60502;SDS011;51448;51.660;5.824;2024-01-27T05:23:22;35.78;;;10.95;;
60502;SDS011;51448;51.660;5.824;2024-01-27T05:25:50;18.00;;;8.40;;
60502;SDS011;51448;51.660;5.824;2024-01-27T05:28:18;21.08;;;8.50;;
60502;SDS011;51448;51.660;5.824;2024-01-27T05:30:45;19.77;;;8.68;;
60502;SDS011;51448;51.660;5.824;2024-01-27T05:33:13;27.70;;;9.93;;
60502;SDS011;51448;51.660;5.824;2024-01-27T05:35:40;21.85;;;8.70;;
60502;SDS011;51448;51.660;5.824;2024-01-27T05:38:08;21.27;;;8.25;;
60502;SDS011;51448;51.660;5.824;2024-01-27T05:40:36;20.75;;;9.25;;
60502;SDS011;51448;51.660;5.824;2024-01-27T05:43:07;21.75;;;10.25;;
60502;SDS011;51448;51.660;5.824;2024-01-27T05:45:35;18.10;;;7.55;;
60502;SDS011;51448;51.660;5.824;2024-01-27T05:48:04;22.17;;;9.43;;
60502;SDS011;51448;51.660;5.824;2024-01-27T05:50:32;26.45;;;9.32;;
60502;SDS011;51448;51.660;5.824;2024-01-27T05:53:01;20.80;;;8.70;;
60502;SDS011;51448;51.660;5.824;2024-01-27T05:55:29;20.15;;;8.93;;
60502;SDS011;51448;51.660;5.824;2024-01-27T05:57:56;15.45;;;7.40;;
60502;SDS011;51448;51.660;5.824;2024-01-27T06:00:24;26.00;;;9.70;;
60502;SDS011;51448;51.660;5.824;2024-01-27T06:02:52;31.35;;;10.40;;
60502;SDS011;51448;51.660;5.824;2024-01-27T06:05:19;19.10;;;9.05;;
60502;SDS011;51448;51.660;5.824;2024-01-27T06:07:47;24.00;;;9.73;;
60502;SDS011;51448;51.660;5.824;2024-01-27T06:10:16;20.15;;;9.00;;
60502;SDS011;51448;51.660;5.824;2024-01-27T06:12:45;17.10;;;8.90;;
60502;SDS011;51448;51.660;5.824;2024-01-27T06:15:12;20.88;;;8.38;;
60502;SDS011;51448;51.660;5.824;2024-01-27T06:17:42;19.73;;;9.40;;
60502;SDS011;51448;51.660;5.824;2024-01-27T06:20:10;27.13;;;9.18;;
60502;SDS011;51448;51.660;5.824;2024-01-27T06:22:38;21.83;;;8.20;;
60502;SDS011;51448;51.660;5.824;2024-01-27T06:25:07;21.38;;;9.52;;
60502;SDS011;51448;51.660;5.824;2024-01-27T06:27:35;23.13;;;9.30;;
60502;SDS011;51448;51.660;5.824;2024-01-27T06:30:05;20.67;;;9.00;;
60502;SDS011;51448;51.660;5.824;2024-01-27T06:32:33;26.13;;;9.80;;
60502;SDS011;51448;51.660;5.824;2024-01-27T06:35:00;23.30;;;10.05;;
60502;SDS011;51448;51.660;5.824;2024-01-27T06:37:28;24.23;;;10.32;;
60502;SDS011;51448;51.660;5.824;2024-01-27T06:39:56;28.17;;;10.07;;
60502;SDS011;51448;51.660;5.824;2024-01-27T06:42:23;18.83;;;8.80;;
60502;SDS011;51448;51.660;5.824;2024-01-27T06:44:51;24.08;;;10.40;;
60502;SDS011;51448;51.660;5.824;2024-01-27T06:47:19;24.17;;;8.98;;
60502;SDS011;51448;51.660;5.824;2024-01-27T06:49:46;23.08;;;10.45;;
60502;SDS011;51448;51.660;5.824;2024-01-27T06:52:14;23.75;;;9.63;;
60502;SDS011;51448;51.660;5.824;2024-01-27T06:54:41;24.20;;;10.32;;
60502;SDS011;51448;51.660;5.824;2024-01-27T06:57:18;27.13;;;10.10;;
60502;SDS011;51448;51.660;5.824;2024-01-27T06:59:51;20.35;;;9.50;;
60502;SDS011;51448;51.660;5.824;2024-01-27T07:02:23;20.75;;;9.95;;
60502;SDS011;51448;51.660;5.824;2024-01-27T07:04:54;27.52;;;11.40;;
60502;SDS011;51448;51.660;5.824;2024-01-27T07:07:24;23.67;;;10.68;;
60502;SDS011;51448;51.660;5.824;2024-01-27T07:09:54;22.70;;;10.43;;
60502;SDS011;51448;51.660;5.824;2024-01-27T07:12:23;20.30;;;11.23;;
60502;SDS011;51448;51.660;5.824;2024-01-27T07:14:51;22.23;;;10.90;;
60502;SDS011;51448;51.660;5.824;2024-01-27T07:17:23;26.85;;;12.65;;
60502;SDS011;51448;51.660;5.824;2024-01-27T07:19:51;23.15;;;12.23;;
60502;SDS011;51448;51.660;5.824;2024-01-27T07:22:19;18.98;;;10.43;;
60502;SDS011;51448;51.660;5.824;2024-01-27T07:24:46;24.25;;;10.43;;
60502;SDS011;51448;51.660;5.824;2024-01-27T07:27:17;22.52;;;11.77;;
60502;SDS011;51448;51.660;5.824;2024-01-27T07:29:47;26.00;;;9.90;;
60502;SDS011;51448;51.660;5.824;2024-01-27T07:32:15;18.55;;;9.30;;
60502;SDS011;51448;51.660;5.824;2024-01-27T07:34:43;25.10;;;11.27;;
60502;SDS011;51448;51.660;5.824;2024-01-27T07:37:11;17.88;;;10.77;;
60502;SDS011;51448;51.660;5.824;2024-01-27T07:39:38;23.95;;;10.55;;
60502;SDS011;51448;51.660;5.824;2024-01-27T07:42:06;27.45;;;9.52;;
60502;SDS011;51448;51.660;5.824;2024-01-27T07:44:34;31.42;;;11.40;;
60502;SDS011;51448;51.660;5.824;2024-01-27T07:47:02;26.52;;;10.45;;
60502;SDS011;51448;51.660;5.824;2024-01-27T07:49:29;21.75;;;10.43;;
60502;SDS011;51448;51.660;5.824;2024-01-27T07:51:57;23.02;;;9.80;;
60502;SDS011;51448;51.660;5.824;2024-01-27T07:54:24;23.73;;;12.27;;
60502;SDS011;51448;51.660;5.824;2024-01-27T07:56:52;24.25;;;11.10;;
60502;SDS011;51448;51.660;5.824;2024-01-27T07:59:19;22.30;;;10.27;;
60502;SDS011;51448;51.660;5.824;2024-01-27T08:01:47;24.55;;;10.25;;
60502;SDS011;51448;51.660;5.824;2024-01-27T08:04:14;24.65;;;11.68;;
60502;SDS011;51448;51.660;5.824;2024-01-27T08:06:47;25.08;;;11.48;;
60502;SDS011;51448;51.660;5.824;2024-01-27T08:09:17;28.67;;;11.45;;
60502;SDS011;51448;51.660;5.824;2024-01-27T08:11:46;29.20;;;13.77;;
60502;SDS011;51448;51.660;5.824;2024-01-27T08:14:18;28.55;;;11.02;;
60502;SDS011;51448;51.660;5.824;2024-01-27T08:16:47;20.95;;;11.43;;
60502;SDS011;51448;51.660;5.824;2024-01-27T08:19:15;27.83;;;12.43;;
60502;SDS011;51448;51.660;5.824;2024-01-27T08:21:48;20.45;;;11.45;;
60502;SDS011;51448;51.660;5.824;2024-01-27T08:24:15;29.30;;;12.02;;
60502;SDS011;51448;51.660;5.824;2024-01-27T08:26:43;20.88;;;10.30;;
60502;SDS011;51448;51.660;5.824;2024-01-27T08:29:11;24.05;;;10.60;;
60502;SDS011;51448;51.660;5.824;2024-01-27T08:31:39;24.23;;;10.00;;
60502;SDS011;51448;51.660;5.824;2024-01-27T08:34:07;21.05;;;9.73;;
60502;SDS011;51448;51.660;5.824;2024-01-27T08:36:35;23.70;;;11.18;;
60502;SDS011;51448;51.660;5.824;2024-01-27T08:39:02;26.80;;;10.60;;
60502;SDS011;51448;51.660;5.824;2024-01-27T08:41:31;26.10;;;10.88;;
60502;SDS011;51448;51.660;5.824;2024-01-27T08:43:59;28.00;;;10.57;;
60502;SDS011;51448;51.660;5.824;2024-01-27T08:46:26;21.27;;;10.88;;
60502;SDS011;51448;51.660;5.824;2024-01-27T08:48:54;23.60;;;11.38;;
60502;SDS011;51448;51.660;5.824;2024-01-27T08:51:21;25.27;;;11.65;;
60502;SDS011;51448;51.660;5.824;2024-01-27T08:53:49;24.38;;;10.93;;
60502;SDS011;51448;51.660;5.824;2024-01-27T08:56:17;25.48;;;10.98;;
60502;SDS011;51448;51.660;5.824;2024-01-27T08:58:45;27.20;;;10.93;;
60502;SDS011;51448;51.660;5.824;2024-01-27T09:01:18;22.27;;;11.27;;
60502;SDS011;51448;51.660;5.824;2024-01-27T09:03:46;32.28;;;12.05;;
60502;SDS011;51448;51.660;5.824;2024-01-27T09:06:14;26.17;;;10.63;;
60502;SDS011;51448;51.660;5.824;2024-01-27T09:08:42;27.92;;;12.85;;
60502;SDS011;51448;51.660;5.824;2024-01-27T09:11:10;21.42;;;10.48;;
60502;SDS011;51448;51.660;5.824;2024-01-27T09:13:37;23.33;;;9.50;;
60502;SDS011;51448;51.660;5.824;2024-01-27T09:16:05;26.23;;;9.00;;
60502;SDS011;51448;51.660;5.824;2024-01-27T09:18:33;31.98;;;12.77;;
60502;SDS011;51448;51.660;5.824;2024-01-27T09:21:00;19.23;;;10.48;;
60502;SDS011;51448;51.660;5.824;2024-01-27T09:23:28;25.08;;;10.70;;
60502;SDS011;51448;51.660;5.824;2024-01-27T09:25:55;29.25;;;11.20;;
60502;SDS011;51448;51.660;5.824;2024-01-27T09:28:23;25.10;;;10.25;;
60502;SDS011;51448;51.660;5.824;2024-01-27T09:30:51;22.83;;;10.88;;
60502;SDS011;51448;51.660;5.824;2024-01-27T09:33:19;26.42;;;10.18;;
60502;SDS011;51448;51.660;5.824;2024-01-27T09:35:50;22.90;;;9.53;;
60502;SDS011;51448;51.660;5.824;2024-01-27T09:38:18;25.00;;;11.02;;
60502;SDS011;51448;51.660;5.824;2024-01-27T09:40:46;26.58;;;10.55;;
60502;SDS011;51448;51.660;5.824;2024-01-27T09:43:13;21.00;;;10.15;;
60502;SDS011;51448;51.660;5.824;2024-01-27T09:45:46;20.25;;;10.00;;
60502;SDS011;51448;51.660;5.824;2024-01-27T09:48:15;25.55;;;10.73;;
60502;SDS011;51448;51.660;5.824;2024-01-27T09:50:44;26.80;;;10.27;;
60502;SDS011;51448;51.660;5.824;2024-01-27T09:53:15;24.00;;;11.27;;
60502;SDS011;51448;51.660;5.824;2024-01-27T09:55:43;24.65;;;10.73;;
60502;SDS011;51448;51.660;5.824;2024-01-27T09:58:11;27.13;;;12.55;;
60502;SDS011;51448;51.660;5.824;2024-01-27T10:00:41;25.63;;;10.55;;
60502;SDS011;51448;51.660;5.824;2024-01-27T10:03:09;21.30;;;10.88;;
60502;SDS011;51448;51.660;5.824;2024-01-27T10:05:38;26.20;;;10.85;;
60502;SDS011;51448;51.660;5.824;2024-01-27T10:08:08;18.55;;;9.88;;
60502;SDS011;51448;51.660;5.824;2024-01-27T10:10:36;23.75;;;11.35;;
60502;SDS011;51448;51.660;5.824;2024-01-27T10:13:04;26.08;;;11.20;;
60502;SDS011;51448;51.660;5.824;2024-01-27T10:15:31;24.75;;;10.43;;
60502;SDS011;51448;51.660;5.824;2024-01-27T10:18:05;24.67;;;11.57;;
60502;SDS011;51448;51.660;5.824;2024-01-27T10:20:35;26.00;;;12.02;;
60502;SDS011;51448;51.660;5.824;2024-01-27T10:23:12;21.77;;;9.95;;
60502;SDS011;51448;51.660;5.824;2024-01-27T10:25:40;27.15;;;11.73;;
60502;SDS011;51448;51.660;5.824;2024-01-27T10:28:09;21.65;;;10.23;;
60502;SDS011;51448;51.660;5.824;2024-01-27T10:30:37;19.27;;;9.88;;
60502;SDS011;51448;51.660;5.824;2024-01-27T10:33:07;23.15;;;10.43;;
60502;SDS011;51448;51.660;5.824;2024-01-27T10:35:37;32.40;;;12.20;;
60502;SDS011;51448;51.660;5.824;2024-01-27T10:38:05;18.85;;;8.98;;
60502;SDS011;51448;51.660;5.824;2024-01-27T10:40:33;21.60;;;9.60;;
60502;SDS011;51448;51.660;5.824;2024-01-27T10:43:06;18.23;;;8.98;;
60502;SDS011;51448;51.660;5.824;2024-01-27T10:45:36;18.67;;;8.45;;
60502;SDS011;51448;51.660;5.824;2024-01-27T10:48:09;22.65;;;9.27;;
60502;SDS011;51448;51.660;5.824;2024-01-27T10:50:39;22.08;;;8.65;;
60502;SDS011;51448;51.660;5.824;2024-01-27T10:53:21;17.88;;;8.07;;
60502;SDS011;51448;51.660;5.824;2024-01-27T10:55:58;23.90;;;9.35;;
60502;SDS011;51448;51.660;5.824;2024-01-27T10:58:26;19.25;;;7.80;;
60502;SDS011;51448;51.660;5.824;2024-01-27T11:00:55;17.75;;;7.40;;
60502;SDS011;51448;51.660;5.824;2024-01-27T11:03:25;22.75;;;7.90;;
60502;SDS011;51448;51.660;5.824;2024-01-27T11:05:56;19.10;;;7.72;;
60502;SDS011;51448;51.660;5.824;2024-01-27T11:08:26;20.63;;;8.13;;
60502;SDS011;51448;51.660;5.824;2024-01-27T11:10:56;22.42;;;8.68;;
60502;SDS011;51448;51.660;5.824;2024-01-27T11:13:25;21.75;;;8.23;;
60502;SDS011;51448;51.660;5.824;2024-01-27T11:15:59;20.33;;;8.68;;
60502;SDS011;51448;51.660;5.824;2024-01-27T11:18:27;16.40;;;7.22;;
60502;SDS011;51448;51.660;5.824;2024-01-27T11:20:58;18.85;;;7.03;;
60502;SDS011;51448;51.660;5.824;2024-01-27T11:23:33;20.60;;;7.22;;
60502;SDS011;51448;51.660;5.824;2024-01-27T11:26:03;20.67;;;8.02;;
60502;SDS011;51448;51.660;5.824;2024-01-27T11:28:32;18.10;;;6.43;;
60502;SDS011;51448;51.660;5.824;2024-01-27T11:31:03;20.83;;;8.38;;
60502;SDS011;51448;51.660;5.824;2024-01-27T11:33:32;14.20;;;6.20;;
60502;SDS011;51448;51.660;5.824;2024-01-27T11:36:03;14.07;;;6.53;;
60502;SDS011;51448;51.660;5.824;2024-01-27T11:38:32;20.20;;;7.22;;
60502;SDS011;51448;51.660;5.824;2024-01-27T11:41:00;18.38;;;6.43;;
60502;SDS011;51448;51.660;5.824;2024-01-27T11:43:28;19.52;;;7.43;;
60502;SDS011;51448;51.660;5.824;2024-01-27T11:45:57;23.08;;;8.30;;
60502;SDS011;51448;51.660;5.824;2024-01-27T11:48:26;20.63;;;7.40;;
60502;SDS011;51448;51.660;5.824;2024-01-27T11:51:05;22.23;;;7.07;;
60502;SDS011;51448;51.660;5.824;2024-01-27T11:53:39;19.20;;;7.25;;
60502;SDS011;51448;51.660;5.824;2024-01-27T11:56:06;24.67;;;7.03;;
60502;SDS011;51448;51.660;5.824;2024-01-27T11:58:34;23.30;;;7.90;;
60502;SDS011;51448;51.660;5.824;2024-01-27T12:01:02;18.35;;;6.80;;
60502;SDS011;51448;51.660;5.824;2024-01-27T12:03:30;16.77;;;6.90;;
60502;SDS011;51448;51.660;5.824;2024-01-27T12:05:58;16.05;;;6.63;;
60502;SDS011;51448;51.660;5.824;2024-01-27T12:08:26;19.67;;;7.22;;
60502;SDS011;51448;51.660;5.824;2024-01-27T12:10:55;23.55;;;6.72;;
60502;SDS011;51448;51.660;5.824;2024-01-27T12:13:22;19.02;;;7.00;;
60502;SDS011;51448;51.660;5.824;2024-01-27T12:15:50;15.95;;;7.00;;
60502;SDS011;51448;51.660;5.824;2024-01-27T12:18:18;22.05;;;7.60;;
60502;SDS011;51448;51.660;5.824;2024-01-27T12:20:54;18.08;;;6.35;;
60502;SDS011;51448;51.660;5.824;2024-01-27T12:23:23;25.88;;;7.28;;
60502;SDS011;51448;51.660;5.824;2024-01-27T12:25:54;17.13;;;7.55;;
60502;SDS011;51448;51.660;5.824;2024-01-27T12:28:23;23.25;;;8.77;;
60502;SDS011;51448;51.660;5.824;2024-01-27T12:30:51;18.13;;;4.78;;
60502;SDS011;51448;51.660;5.824;2024-01-27T12:33:20;55.80;;;27.20;;
60502;SDS011;51448;51.660;5.824;2024-01-27T12:35:51;19.10;;;5.30;;
60502;SDS011;51448;51.660;5.824;2024-01-27T12:38:22;18.33;;;6.47;;
60502;SDS011;51448;51.660;5.824;2024-01-27T12:40:49;15.18;;;4.95;;
60502;SDS011;51448;51.660;5.824;2024-01-27T12:43:17;12.00;;;4.88;;
60502;SDS011;51448;51.660;5.824;2024-01-27T12:45:44;13.27;;;4.68;;
60502;SDS011;51448;51.660;5.824;2024-01-27T12:48:12;14.05;;;4.18;;
60502;SDS011;51448;51.660;5.824;2024-01-27T12:50:40;9.57;;;4.38;;
60502;SDS011;51448;51.660;5.824;2024-01-27T12:53:07;17.17;;;7.85;;
60502;SDS011;51448;51.660;5.824;2024-01-27T12:55:35;14.65;;;4.95;;
60502;SDS011;51448;51.660;5.824;2024-01-27T12:58:02;12.60;;;4.32;;
60502;SDS011;51448;51.660;5.824;2024-01-27T13:00:30;17.58;;;5.95;;
60502;SDS011;51448;51.660;5.824;2024-01-27T13:02:58;16.80;;;6.07;;
60502;SDS011;51448;51.660;5.824;2024-01-27T13:05:26;12.77;;;4.25;;
60502;SDS011;51448;51.660;5.824;2024-01-27T13:07:53;32.25;;;15.10;;
60502;SDS011;51448;51.660;5.824;2024-01-27T13:10:21;16.63;;;6.03;;
60502;SDS011;51448;51.660;5.824;2024-01-27T13:12:49;13.05;;;3.95;;
60502;SDS011;51448;51.660;5.824;2024-01-27T13:15:16;15.70;;;8.23;;
60502;SDS011;51448;51.660;5.824;2024-01-27T13:17:45;10.90;;;3.47;;
60502;SDS011;51448;51.660;5.824;2024-01-27T13:20:12;14.85;;;4.18;;
60502;SDS011;51448;51.660;5.824;2024-01-27T13:22:44;8.45;;;3.55;;
60502;SDS011;51448;51.660;5.824;2024-01-27T13:25:12;9.45;;;3.53;;
60502;SDS011;51448;51.660;5.824;2024-01-27T13:27:40;8.75;;;2.72;;
60502;SDS011;51448;51.660;5.824;2024-01-27T13:30:07;8.73;;;3.20;;
60502;SDS011;51448;51.660;5.824;2024-01-27T13:32:36;9.70;;;3.10;;
60502;SDS011;51448;51.660;5.824;2024-01-27T13:35:04;13.65;;;4.38;;
60502;SDS011;51448;51.660;5.824;2024-01-27T13:37:35;13.70;;;3.72;;
60502;SDS011;51448;51.660;5.824;2024-01-27T13:40:03;9.23;;;2.67;;
60502;SDS011;51448;51.660;5.824;2024-01-27T13:42:31;12.27;;;3.88;;
60502;SDS011;51448;51.660;5.824;2024-01-27T13:44:59;14.45;;;3.90;;
60502;SDS011;51448;51.660;5.824;2024-01-27T13:47:27;17.00;;;4.15;;
60502;SDS011;51448;51.660;5.824;2024-01-27T13:49:55;10.82;;;3.17;;
60502;SDS011;51448;51.660;5.824;2024-01-27T13:52:25;14.82;;;3.83;;
60502;SDS011;51448;51.660;5.824;2024-01-27T13:54:52;17.13;;;3.65;;
60502;SDS011;51448;51.660;5.824;2024-01-27T13:57:20;10.25;;;4.45;;
60502;SDS011;51448;51.660;5.824;2024-01-27T13:59:48;13.50;;;3.30;;
60502;SDS011;51448;51.660;5.824;2024-01-27T14:02:16;12.13;;;3.42;;
60502;SDS011;51448;51.660;5.824;2024-01-27T14:04:43;10.65;;;3.70;;
60502;SDS011;51448;51.660;5.824;2024-01-27T14:07:11;12.25;;;3.83;;
60502;SDS011;51448;51.660;5.824;2024-01-27T14:09:39;20.13;;;8.63;;
60502;SDS011;51448;51.660;5.824;2024-01-27T14:12:07;13.45;;;4.28;;
60502;SDS011;51448;51.660;5.824;2024-01-27T14:14:35;19.40;;;6.55;;
60502;SDS011;51448;51.660;5.824;2024-01-27T14:17:05;14.27;;;3.83;;
60502;SDS011;51448;51.660;5.824;2024-01-27T14:19:33;13.13;;;3.33;;
60502;SDS011;51448;51.660;5.824;2024-01-27T14:22:01;10.95;;;3.55;;
60502;SDS011;51448;51.660;5.824;2024-01-27T14:24:28;14.30;;;3.53;;
60502;SDS011;51448;51.660;5.824;2024-01-27T14:26:56;15.35;;;4.47;;
60502;SDS011;51448;51.660;5.824;2024-01-27T14:29:23;14.38;;;3.45;;
60502;SDS011;51448;51.660;5.824;2024-01-27T14:31:51;8.98;;;2.88;;
60502;SDS011;51448;51.660;5.824;2024-01-27T14:34:19;10.57;;;3.80;;
60502;SDS011;51448;51.660;5.824;2024-01-27T14:36:47;14.23;;;4.03;;